This is the latest recevied weather packets stored in our database for station/object E24CR-1. If no packets are shown the sender has not sent any weather packets the latest 10 day(s).
| Time | Temp. | Humidity | Pressure | Rain* | Wind** | Luminosity | Snow |
|---|---|---|---|---|---|---|---|
| 1778158537 | 31.11° C | 55% | 950 hPa | - | - | 0 W/m² | - |
| 1778157910 | 31.11° C | 54% | 949 hPa | - | - | 0 W/m² | - |
| 1778157282 | 31.67° C | 52% | 949 hPa | - | - | 0 W/m² | - |
| 1778156656 | 32.22° C | 50% | 949 hPa | - | - | 0 W/m² | - |
| 1778156030 | 32.22° C | 50% | 948 hPa | - | - | 0 W/m² | - |
| 1778155403 | 32.22° C | 50% | 948 hPa | - | - | 0 W/m² | - |
| 1778154777 | 33.33° C | 48% | 947 hPa | - | - | 0 W/m² | - |
| 1778154151 | 33.89° C | 46% | 947 hPa | - | - | 0 W/m² | - |
| 1778153525 | 33.89° C | 44% | 947 hPa | - | - | 0 W/m² | - |
| 1778152900 | 35° C | 42% | 947 hPa | - | - | 0 W/m² | - |
| 1778152274 | 33.89° C | 44% | 947 hPa | - | - | 0 W/m² | - |
| 1778151648 | 33.33° C | 45% | 947 hPa | - | - | 0 W/m² | - |
| 1778151022 | 32.78° C | 46% | 947 hPa | - | - | 0 W/m² | - |
| 1778150396 | 33.33° C | 47% | 947 hPa | - | - | 0 W/m² | - |
| 1778149770 | 33.89° C | 44% | 946 hPa | - | - | 0 W/m² | - |
| 1778149144 | 33.89° C | 44% | 946 hPa | - | - | 0 W/m² | - |
| 1778148518 | 33.89° C | 47% | 946 hPa | - | - | 0 W/m² | - |
| 1778147892 | 32.78° C | 47% | 947 hPa | - | - | 0 W/m² | - |
| 1778147267 | 32.22° C | 50% | 947 hPa | - | - | 0 W/m² | - |
| 1778146642 | 32.22° C | 48% | 946 hPa | - | - | 0 W/m² | - |
| 1778146016 | 33.33° C | 47% | 947 hPa | - | - | 0 W/m² | - |
| 1778145391 | 33.89° C | 42% | 947 hPa | - | - | 0 W/m² | - |
| 1778144766 | 34.44° C | 38% | 947 hPa | - | - | 0 W/m² | - |
| 1778144140 | 34.44° C | 38% | 947 hPa | - | - | 0 W/m² | - |
| 1778142670 | 35° C | 37% | 947 hPa | - | - | 0 W/m² | - |
* Rain since midnight (hover to see other rain measurements)
** Current wind speed in m/s (hover to see current wind gust speed)